createdAt,value
2022-09-22T00:01:08.064Z,8.23
2022-09-22T00:03:40.344Z,9.43
2022-09-22T00:06:15.824Z,8.02
2022-09-22T00:08:45.695Z,7.57
2022-09-22T00:11:23.954Z,7.90
2022-09-22T00:13:59.665Z,6.63
2022-09-22T00:16:29.797Z,7.35
2022-09-22T00:18:56.673Z,7.03
2022-09-22T00:21:27.524Z,7.65
2022-09-22T00:23:54.928Z,7.72
2022-09-22T00:26:23.349Z,9.30
2022-09-22T00:28:51.580Z,6.80
2022-09-22T00:31:24.046Z,7.47
2022-09-22T00:33:52.031Z,7.32
2022-09-22T00:36:21.553Z,7.57
2022-09-22T00:38:51.517Z,6.72
2022-09-22T00:41:24.787Z,5.82
2022-09-22T00:44:26.076Z,7.10
2022-09-22T00:46:52.627Z,6.82
2022-09-22T00:49:27.105Z,7.30
2022-09-22T00:51:53.759Z,7.00
2022-09-22T00:54:20.748Z,7.25
2022-09-22T00:56:54.914Z,7.22
2022-09-22T00:59:25.118Z,5.80
2022-09-22T01:01:52.640Z,6.60
2022-09-22T01:04:19.476Z,8.55
2022-09-22T01:06:46.991Z,5.47
2022-09-22T01:09:14.393Z,7.45
2022-09-22T01:11:42.426Z,8.18
2022-09-22T01:14:31.037Z,6.82
2022-09-22T01:17:42.269Z,4.53
2022-09-22T01:20:37.726Z,5.28
2022-09-22T01:23:24.434Z,5.00
2022-09-22T01:26:33.235Z,7.60
2022-09-22T01:29:33.325Z,5.80
2022-09-22T01:32:12.136Z,5.07
2022-09-22T01:34:48.541Z,6.78
2022-09-22T01:37:26.895Z,5.45
2022-09-22T01:40:42.640Z,5.68
2022-09-22T01:43:33.831Z,4.85
2022-09-22T01:46:06.393Z,4.68
2022-09-22T01:48:35.336Z,6.10
2022-09-22T01:51:24.456Z,5.25
2022-09-22T01:53:59.766Z,5.68
2022-09-22T01:56:29.471Z,5.50
2022-09-22T01:58:59.913Z,4.78
2022-09-22T02:01:38.828Z,6.95
2022-09-22T02:04:14.288Z,4.50
2022-09-22T02:06:47.223Z,6.68
2022-09-22T02:09:17.924Z,7.55
2022-09-22T02:11:44.807Z,5.72
2022-09-22T02:14:12.325Z,6.30
2022-09-22T02:16:39.013Z,4.00
2022-09-22T02:19:13.173Z,5.10
2022-09-22T02:21:41.872Z,4.45
2022-09-22T02:24:29.745Z,4.70
2022-09-22T02:27:09.111Z,4.22
2022-09-22T02:29:40.165Z,3.80
2022-09-22T02:32:11.393Z,5.25
2022-09-22T02:34:38.302Z,4.30
2022-09-22T02:37:17.041Z,5.95
2022-09-22T02:39:55.520Z,5.15
2022-09-22T02:42:33.092Z,5.60
2022-09-22T02:45:01.961Z,5.40
2022-09-22T02:47:36.876Z,4.50
2022-09-22T02:50:08.252Z,5.47
2022-09-22T02:52:36.969Z,5.53
2022-09-22T02:55:04.636Z,4.45
2022-09-22T02:57:31.175Z,4.80
2022-09-22T02:59:57.752Z,3.78
2022-09-22T03:02:24.354Z,5.18
2022-09-22T03:04:51.516Z,6.25
2022-09-22T03:07:18.643Z,5.70
2022-09-22T03:09:45.221Z,3.63
2022-09-22T03:12:11.777Z,5.75
2022-09-22T03:14:38.306Z,4.32
2022-09-22T03:17:05.001Z,5.95
2022-09-22T03:19:31.544Z,4.35
2022-09-22T03:21:58.104Z,4.32
2022-09-22T03:24:24.707Z,5.45
2022-09-22T03:26:51.261Z,3.60
2022-09-22T03:29:17.881Z,3.30
2022-09-22T03:31:44.485Z,3.53
2022-09-22T03:34:11.030Z,2.72
2022-09-22T03:36:37.812Z,4.97
2022-09-22T03:39:04.419Z,3.25
2022-09-22T03:41:31.854Z,4.03
2022-09-22T03:43:58.714Z,4.10
2022-09-22T03:46:25.965Z,4.15
2022-09-22T03:48:52.685Z,4.50
2022-09-22T03:51:19.405Z,5.00
2022-09-22T03:53:46.357Z,3.30
2022-09-22T03:56:15.054Z,3.92
2022-09-22T03:58:42.536Z,3.72
2022-09-22T04:01:10.447Z,6.18
2022-09-22T04:03:37.709Z,3.88
2022-09-22T04:06:04.535Z,4.20
2022-09-22T04:08:31.137Z,4.68
2022-09-22T04:10:57.710Z,3.33
2022-09-22T04:13:24.343Z,4.35
2022-09-22T04:15:50.872Z,4.30
2022-09-22T04:18:17.495Z,5.20
2022-09-22T04:20:45.154Z,3.83
2022-09-22T04:23:12.673Z,4.53
2022-09-22T04:25:39.281Z,4.30
2022-09-22T04:28:06.692Z,3.45
2022-09-22T04:30:34.185Z,3.35
2022-09-22T04:33:01.118Z,4.13
2022-09-22T04:35:28.713Z,4.10
2022-09-22T04:37:55.818Z,5.13
2022-09-22T04:40:24.090Z,2.85
2022-09-22T04:42:51.209Z,4.88
2022-09-22T04:45:17.830Z,3.97
2022-09-22T04:47:45.903Z,7.00
2022-09-22T04:50:13.124Z,14.60
2022-09-22T04:52:39.995Z,7.38
2022-09-22T04:55:07.200Z,9.52
2022-09-22T04:57:33.733Z,10.07
2022-09-22T05:00:00.268Z,5.43
2022-09-22T05:02:26.828Z,2.60
2022-09-22T05:04:53.376Z,1.92
2022-09-22T05:07:19.900Z,4.25
2022-09-22T05:09:47.550Z,4.28
2022-09-22T05:12:14.107Z,2.28
2022-09-22T05:14:40.702Z,4.18
2022-09-22T05:17:07.224Z,3.38
2022-09-22T05:19:33.769Z,5.63
2022-09-22T05:22:00.893Z,4.82
2022-09-22T05:24:27.425Z,6.00
2022-09-22T05:26:54.112Z,3.38
2022-09-22T05:29:23.562Z,3.58
2022-09-22T05:31:53.870Z,2.60
2022-09-22T05:34:20.445Z,4.13
2022-09-22T05:36:46.996Z,3.42
2022-09-22T05:39:13.616Z,4.53
2022-09-22T05:41:40.172Z,3.35
2022-09-22T05:44:06.715Z,5.60
2022-09-22T05:46:33.272Z,3.83
2022-09-22T05:48:59.819Z,4.28
2022-09-22T05:51:26.445Z,3.35
2022-09-22T05:53:53.129Z,2.72
2022-09-22T05:56:19.690Z,4.15
2022-09-22T05:58:47.660Z,2.83
2022-09-22T06:01:14.521Z,3.70
2022-09-22T06:03:41.088Z,3.20
2022-09-22T06:06:07.680Z,1.92
2022-09-22T06:08:34.239Z,1.55
2022-09-22T06:11:00.993Z,3.25
2022-09-22T06:13:27.534Z,3.15
2022-09-22T06:15:54.084Z,3.10
2022-09-22T06:18:24.535Z,3.65
2022-09-22T06:20:52.016Z,3.10
2022-09-22T06:23:18.983Z,2.22
2022-09-22T06:25:45.522Z,3.05
2022-09-22T06:28:14.455Z,2.40
2022-09-22T06:30:41.402Z,1.73
2022-09-22T06:33:09.533Z,1.52
2022-09-22T06:35:39.304Z,3.05
2022-09-22T06:38:07.556Z,2.47
2022-09-22T06:40:38.244Z,1.85
2022-09-22T06:43:12.729Z,2.35
2022-09-22T06:45:40.147Z,1.63
2022-09-22T06:48:10.155Z,1.92
2022-09-22T06:50:37.581Z,2.45
2022-09-22T06:53:07.112Z,2.35
2022-09-22T06:55:34.972Z,1.95
2022-09-22T06:58:02.776Z,3.95
2022-09-22T07:00:33.632Z,1.95
2022-09-22T07:03:13.216Z,3.35
2022-09-22T07:05:39.805Z,2.10
2022-09-22T07:08:08.678Z,2.55
2022-09-22T07:10:37.817Z,2.70
2022-09-22T07:13:05.996Z,1.45
2022-09-22T07:15:35.498Z,1.65
2022-09-22T07:18:02.996Z,1.52
2022-09-22T07:20:30.297Z,1.40
2022-09-22T07:23:00.829Z,2.33
2022-09-22T07:25:28.501Z,1.63
2022-09-22T07:27:57.677Z,2.63
2022-09-22T07:30:26.106Z,2.67
2022-09-22T07:32:53.683Z,1.90
2022-09-22T07:35:20.289Z,2.65
2022-09-22T07:37:46.877Z,1.55
2022-09-22T07:40:14.545Z,1.52
2022-09-22T07:42:41.569Z,1.50
2022-09-22T07:45:12.634Z,2.13
2022-09-22T07:47:57.867Z,2.35
2022-09-22T07:50:24.496Z,1.33
2022-09-22T07:52:52.430Z,1.50
2022-09-22T07:55:22.221Z,3.67
2022-09-22T07:57:59.778Z,3.03
2022-09-22T08:00:28.587Z,2.05
2022-09-22T08:02:57.699Z,2.35
2022-09-22T08:05:26.276Z,1.98
2022-09-22T08:07:57.045Z,1.95
2022-09-22T08:10:24.026Z,1.52
2022-09-22T08:12:54.949Z,1.38
2022-09-22T08:15:26.166Z,1.50
2022-09-22T08:17:57.961Z,1.88
2022-09-22T08:20:29.016Z,2.35
2022-09-22T08:23:03.054Z,1.27
2022-09-22T08:25:30.329Z,1.55
2022-09-22T08:27:56.873Z,1.67
2022-09-22T08:30:23.474Z,1.42
2022-09-22T08:32:50.072Z,1.67
2022-09-22T08:35:16.588Z,1.10
2022-09-22T08:37:44.306Z,1.90
2022-09-22T08:40:21.136Z,1.85
2022-09-22T08:42:47.969Z,3.45
2022-09-22T08:45:27.009Z,1.33
2022-09-22T08:48:21.920Z,2.33
2022-09-22T08:51:14.556Z,3.17
2022-09-22T08:53:47.546Z,1.50
2022-09-22T08:56:41.572Z,1.70
2022-09-22T08:59:22.854Z,2.03
2022-09-22T09:02:42.473Z,2.10
2022-09-22T09:05:27.641Z,1.40
2022-09-22T09:08:09.228Z,1.50
2022-09-22T09:11:14.071Z,2.47
2022-09-22T09:14:02.667Z,1.35
2022-09-22T09:16:52.624Z,3.33
2022-09-22T09:19:33.267Z,1.92
2022-09-22T09:22:07.071Z,1.33
2022-09-22T09:27:33.060Z,1.42
2022-09-22T09:30:17.919Z,1.23
2022-09-22T09:32:52.576Z,1.80
2022-09-22T09:35:44.054Z,1.15
2022-09-22T09:38:14.576Z,1.47
2022-09-22T09:40:41.861Z,1.95
2022-09-22T09:43:08.935Z,2.15
2022-09-22T09:45:50.268Z,1.17
2022-09-22T09:48:40.748Z,1.27
2022-09-22T09:51:12.038Z,1.38
2022-09-22T09:53:46.305Z,1.35
2022-09-22T09:56:28.029Z,1.15
2022-09-22T09:59:22.047Z,1.60
2022-09-22T10:01:51.057Z,1.70
2022-09-22T10:04:27.465Z,1.25
2022-09-22T10:06:55.196Z,1.05
2022-09-22T10:09:27.644Z,0.80
2022-09-22T10:11:59.063Z,1.40
2022-09-22T10:14:30.162Z,1.15
2022-09-22T10:16:57.664Z,0.80
2022-09-22T10:19:29.965Z,1.20
2022-09-22T10:22:39.149Z,1.30
2022-09-22T10:25:18.318Z,1.10
2022-09-22T10:28:09.213Z,0.85
2022-09-22T10:30:39.568Z,1.10
2022-09-22T10:33:17.250Z,1.10
2022-09-22T10:35:47.240Z,1.02
2022-09-22T10:41:21.563Z,1.10
2022-09-22T10:44:37.547Z,1.00
2022-09-22T10:47:27.262Z,1.10
2022-09-22T10:49:57.222Z,1.05
2022-09-22T10:52:38.835Z,1.17
2022-09-22T10:55:23.418Z,1.42
2022-09-22T10:58:06.938Z,1.33
2022-09-22T11:00:38.290Z,1.35
2022-09-22T11:03:30.798Z,1.05
2022-09-22T11:06:40.796Z,1.10
2022-09-22T11:12:38.506Z,1.13
2022-09-22T11:15:13.939Z,0.90
2022-09-22T11:18:01.414Z,0.70
2022-09-22T11:20:42.947Z,0.90
2022-09-22T11:23:12.559Z,1.00
2022-09-22T11:26:07.067Z,2.22
2022-09-22T11:28:33.557Z,1.30
2022-09-22T11:31:00.701Z,1.42
2022-09-22T11:34:01.205Z,1.27
2022-09-22T11:36:49.335Z,0.90
2022-09-22T11:39:44.617Z,1.15
2022-09-22T11:42:33.580Z,1.63
2022-09-22T11:45:05.985Z,2.08
2022-09-22T11:47:44.050Z,1.00
2022-09-22T11:50:48.055Z,1.10
2022-09-22T11:53:33.950Z,1.17
2022-09-22T11:56:25.532Z,0.93
2022-09-22T11:58:55.734Z,0.88
2022-09-22T12:01:29.315Z,1.20
2022-09-22T12:04:01.554Z,0.80
2022-09-22T12:06:36.615Z,1.52
2022-09-22T12:09:12.273Z,1.20
2022-09-22T12:11:40.364Z,0.85
2022-09-22T12:14:11.789Z,1.15
2022-09-22T12:16:59.201Z,1.00
2022-09-22T12:19:59.774Z,0.80
2022-09-22T12:22:37.557Z,0.80
2022-09-22T12:25:04.397Z,0.98
2022-09-22T12:27:31.163Z,1.08
2022-09-22T12:30:12.872Z,0.90
2022-09-22T12:32:42.790Z,1.20
2022-09-22T12:35:19.953Z,1.20
2022-09-22T12:37:46.640Z,1.05
2022-09-22T12:40:31.815Z,1.30
2022-09-22T12:43:01.783Z,0.70
2022-09-22T12:45:38.082Z,0.93
2022-09-22T12:48:17.388Z,0.80
2022-09-22T12:50:45.649Z,0.90
2022-09-22T12:53:25.864Z,0.80
2022-09-22T12:55:54.228Z,1.10
2022-09-22T12:58:20.757Z,1.08
2022-09-22T13:00:52.563Z,1.13
2022-09-22T13:03:25.314Z,1.38
2022-09-22T13:05:59.811Z,1.27
2022-09-22T13:08:49.059Z,0.85
2022-09-22T13:11:15.636Z,1.05
2022-09-22T13:13:47.131Z,1.02
2022-09-22T13:16:16.815Z,0.70
2022-09-22T13:18:53.014Z,1.15
2022-09-22T13:21:23.820Z,1.00
2022-09-22T13:23:54.813Z,1.25
2022-09-22T13:26:38.268Z,0.95
2022-09-22T13:29:16.969Z,0.93
2022-09-22T13:31:52.637Z,0.80
2022-09-22T13:34:19.339Z,0.70
2022-09-22T13:36:47.060Z,0.73
2022-09-22T13:39:17.435Z,0.90
2022-09-22T13:41:51.054Z,0.93
2022-09-22T13:44:30.345Z,0.70
2022-09-22T13:47:00.384Z,0.82
2022-09-22T13:49:32.101Z,0.70
2022-09-22T13:52:24.777Z,1.00
2022-09-22T13:55:00.591Z,0.65
2022-09-22T13:57:34.459Z,0.77
2022-09-22T14:00:01.829Z,0.90
2022-09-22T14:02:31.872Z,0.73
2022-09-22T14:05:03.012Z,0.80
2022-09-22T14:07:32.240Z,2.28
2022-09-22T14:10:01.311Z,0.95
2022-09-22T14:12:31.825Z,0.80
2022-09-22T14:15:38.560Z,0.82
2022-09-22T14:18:19.088Z,0.80
2022-09-22T14:20:46.707Z,0.63
2022-09-22T14:23:28.960Z,0.80
2022-09-22T14:28:31.512Z,0.68
2022-09-22T14:30:58.276Z,0.80
2022-09-22T14:33:29.130Z,1.00
2022-09-22T14:36:06.047Z,0.95
2022-09-22T14:38:43.015Z,0.70
2022-09-22T14:41:26.424Z,0.65
2022-09-22T14:43:54.471Z,0.90
2022-09-22T14:46:33.603Z,0.75
2022-09-22T14:49:34.443Z,0.88
2022-09-22T14:52:01.447Z,0.60
2022-09-22T14:54:31.960Z,0.50
2022-09-22T14:57:00.616Z,0.68
2022-09-22T14:59:45.662Z,0.98
2022-09-22T15:02:33.134Z,0.68
2022-09-22T15:05:04.891Z,0.77
2022-09-22T15:07:44.392Z,0.85
2022-09-22T15:10:24.736Z,1.17
2022-09-22T15:12:52.537Z,0.90
2022-09-22T15:15:22.741Z,0.98
2022-09-22T15:18:15.436Z,0.70
2022-09-22T15:20:51.540Z,0.70
2022-09-22T15:23:27.124Z,0.80
2022-09-22T15:25:55.319Z,0.73
2022-09-22T15:28:24.667Z,0.82
2022-09-22T15:30:52.675Z,0.68
2022-09-22T15:33:20.988Z,0.70
2022-09-22T15:35:51.977Z,0.93
2022-09-22T15:38:25.329Z,1.10
2022-09-22T15:40:51.953Z,0.73
2022-09-22T15:43:21.298Z,0.85
2022-09-22T15:45:50.136Z,0.60
2022-09-22T15:48:38.625Z,0.70
2022-09-22T15:51:12.864Z,0.88
2022-09-22T15:53:41.517Z,1.30
2022-09-22T15:56:15.195Z,0.60
2022-09-22T15:58:43.471Z,2.90
2022-09-22T16:01:10.140Z,3.33
2022-09-22T16:03:41.229Z,1.13
2022-09-22T16:06:11.741Z,0.70
2022-09-22T16:08:43.811Z,2.67
2022-09-22T16:13:41.573Z,14.13
2022-09-22T16:16:09.154Z,18.95
2022-09-22T16:18:39.325Z,18.15
2022-09-22T16:21:07.668Z,21.83
2022-09-22T16:23:34.226Z,22.15
2022-09-22T16:26:00.797Z,29.52
2022-09-22T16:28:27.333Z,29.70
2022-09-22T16:30:53.892Z,33.30
2022-09-22T16:33:21.070Z,38.53
2022-09-22T16:35:47.750Z,33.15
2022-09-22T16:38:14.333Z,41.95
2022-09-22T16:40:40.893Z,34.63
2022-09-22T16:43:08.835Z,35.25
2022-09-22T16:45:54.213Z,31.95
2022-09-22T16:48:20.817Z,35.67
2022-09-22T16:50:47.390Z,33.47
2022-09-22T16:53:14.201Z,36.65
2022-09-22T16:55:48.114Z,34.90
2022-09-22T16:58:14.660Z,43.25
2022-09-22T17:00:41.569Z,41.50
2022-09-22T17:03:08.556Z,36.50
2022-09-22T17:05:35.214Z,41.90
2022-09-22T17:08:06.458Z,31.38
2022-09-22T17:10:35.447Z,34.88
2022-09-22T17:13:04.718Z,32.75
2022-09-22T17:15:35.701Z,35.50
2022-09-22T17:18:03.885Z,37.55
2022-09-22T17:20:30.830Z,34.53
2022-09-22T17:22:57.957Z,27.90
2022-09-22T17:25:29.012Z,33.65
2022-09-22T17:27:56.469Z,38.43
2022-09-22T17:30:23.177Z,30.20
2022-09-22T17:32:50.165Z,31.38
2022-09-22T17:35:17.341Z,27.65
2022-09-22T17:37:44.017Z,29.52
2022-09-22T17:40:11.771Z,28.50
2022-09-22T17:42:38.497Z,34.63
2022-09-22T17:45:07.259Z,10.05
2022-09-22T17:47:52.428Z,2.65
2022-09-22T17:50:37.757Z,3.08
2022-09-22T17:53:23.105Z,1.10
2022-09-22T17:55:49.645Z,2.22
2022-09-22T17:58:16.184Z,5.57
2022-09-22T18:00:42.890Z,13.63
2022-09-22T18:03:09.509Z,10.80
2022-09-22T18:05:38.768Z,11.30
2022-09-22T18:08:05.304Z,8.02
2022-09-22T18:10:35.000Z,12.73
2022-09-22T18:13:02.805Z,6.60
2022-09-22T18:15:29.675Z,6.25
2022-09-22T18:17:57.806Z,6.75
2022-09-22T18:20:26.151Z,12.05
2022-09-22T18:22:53.364Z,8.60
2022-09-22T18:25:23.031Z,11.25
2022-09-22T18:27:50.039Z,7.13
2022-09-22T18:30:19.144Z,4.60
2022-09-22T18:32:49.294Z,8.80
2022-09-22T18:35:16.213Z,7.82
2022-09-22T18:37:43.115Z,9.77
2022-09-22T18:40:12.409Z,6.20
2022-09-22T18:42:39.617Z,12.50
2022-09-22T18:45:06.676Z,5.28
2022-09-22T18:47:40.727Z,5.68
2022-09-22T18:50:08.136Z,6.13
2022-09-22T18:52:34.672Z,7.25
2022-09-22T18:55:01.831Z,5.15
2022-09-22T18:57:28.608Z,6.45
2022-09-22T18:59:57.638Z,7.38
2022-09-22T19:02:24.761Z,5.07
2022-09-22T19:04:51.623Z,5.30
2022-09-22T19:07:41.371Z,5.55
2022-09-22T19:10:11.642Z,4.82
2022-09-22T19:12:39.757Z,6.15
2022-09-22T19:15:16.316Z,6.25
2022-09-22T19:17:44.977Z,8.73
2022-09-22T19:20:17.561Z,5.10
2022-09-22T19:22:44.638Z,6.35
2022-09-22T19:25:12.195Z,4.95
2022-09-22T19:27:39.942Z,6.65
2022-09-22T19:30:08.127Z,7.45
2022-09-22T19:32:34.948Z,8.07
2022-09-22T19:35:01.591Z,5.25
2022-09-22T19:37:29.372Z,5.30
2022-09-22T19:39:56.373Z,4.43
2022-09-22T19:42:23.263Z,6.05
2022-09-22T19:44:49.821Z,3.70
2022-09-22T19:47:16.415Z,4.85
2022-09-22T19:49:43.071Z,5.68
2022-09-22T19:52:11.086Z,4.75
2022-09-22T19:54:37.800Z,11.15
2022-09-22T19:57:04.719Z,4.97
2022-09-22T19:59:31.331Z,4.88
2022-09-22T20:01:57.977Z,7.10
2022-09-22T20:04:24.637Z,6.07
2022-09-22T20:06:51.275Z,5.60
2022-09-22T20:09:18.292Z,4.18
2022-09-22T20:11:47.143Z,3.25
2022-09-22T20:14:26.971Z,5.03
2022-09-22T20:17:05.755Z,5.07
2022-09-22T20:19:34.199Z,5.90
2022-09-22T20:22:19.811Z,5.25
2022-09-22T20:24:54.861Z,8.75
2022-09-22T20:27:26.021Z,3.55
2022-09-22T20:29:56.972Z,4.33
2022-09-22T20:32:24.790Z,4.63
2022-09-22T20:34:52.348Z,4.43
2022-09-22T20:37:18.956Z,4.10
2022-09-22T20:39:45.668Z,7.07
2022-09-22T20:42:13.509Z,4.82
2022-09-22T20:44:42.147Z,3.67
2022-09-22T20:47:14.029Z,4.85
2022-09-22T20:49:45.956Z,3.33
2022-09-22T20:52:19.701Z,4.22
2022-09-22T20:54:46.390Z,3.53
2022-09-22T20:57:14.090Z,4.60
2022-09-22T20:59:41.461Z,4.05
2022-09-22T21:02:11.064Z,2.53
2022-09-22T21:04:37.792Z,7.72
2022-09-22T21:07:04.638Z,3.20
2022-09-22T21:09:49.805Z,3.30
2022-09-22T21:12:16.428Z,3.20
2022-09-22T21:14:45.117Z,3.22
2022-09-22T21:17:13.472Z,6.25
2022-09-22T21:19:40.374Z,6.18
2022-09-22T21:22:06.931Z,4.35
2022-09-22T21:24:34.014Z,3.92
2022-09-22T21:27:00.643Z,2.85
2022-09-22T21:29:27.700Z,3.35
2022-09-22T21:31:54.233Z,3.50
2022-09-22T21:34:20.782Z,2.40
2022-09-22T21:36:47.749Z,2.88
2022-09-22T21:39:15.157Z,3.50
2022-09-22T21:41:41.758Z,2.63
2022-09-22T21:44:08.592Z,3.42
2022-09-22T21:46:41.169Z,3.85
2022-09-22T21:49:09.023Z,3.53
2022-09-22T21:51:40.152Z,5.95
2022-09-22T21:54:07.128Z,5.00
2022-09-22T21:56:34.770Z,2.78
2022-09-22T21:59:03.108Z,3.65
2022-09-22T22:01:32.308Z,3.33
2022-09-22T22:04:00.355Z,3.92
2022-09-22T22:06:32.477Z,2.40
2022-09-22T22:11:39.229Z,2.08
2022-09-22T22:14:07.996Z,2.17
2022-09-22T22:16:40.616Z,4.50
2022-09-22T22:19:09.801Z,2.25
2022-09-22T22:21:36.441Z,1.75
2022-09-22T22:24:28.380Z,2.80
2022-09-22T22:27:01.067Z,2.38
2022-09-22T22:29:31.131Z,3.25
2022-09-22T22:31:58.128Z,3.72
2022-09-22T22:34:26.009Z,2.22
2022-09-22T22:36:52.903Z,3.83
2022-09-22T22:39:20.188Z,3.35
2022-09-22T22:41:48.702Z,1.95
2022-09-22T22:44:18.193Z,3.75
2022-09-22T22:46:45.662Z,2.58
2022-09-22T22:49:12.676Z,2.70
2022-09-22T22:51:40.084Z,2.65
2022-09-22T22:54:06.757Z,2.20
2022-09-22T22:56:33.298Z,2.03
2022-09-22T22:58:59.817Z,2.90
2022-09-22T23:01:28.698Z,2.05
2022-09-22T23:04:06.383Z,1.60
2022-09-22T23:06:35.989Z,2.22
2022-09-22T23:09:04.714Z,3.28
2022-09-22T23:11:35.801Z,2.47
2022-09-22T23:14:03.706Z,2.13
2022-09-22T23:16:33.672Z,2.30
2022-09-22T23:19:02.060Z,2.70
2022-09-22T23:21:32.991Z,2.22
2022-09-22T23:24:00.946Z,1.73
2022-09-22T23:26:29.046Z,2.72
2022-09-22T23:28:58.393Z,2.30
2022-09-22T23:31:25.923Z,2.05
2022-09-22T23:33:53.029Z,3.75
2022-09-22T23:36:22.792Z,2.15
2022-09-22T23:38:54.126Z,1.83
2022-09-22T23:41:20.817Z,1.48
2022-09-22T23:43:47.406Z,2.35
2022-09-22T23:46:14.036Z,1.63
2022-09-22T23:48:40.612Z,2.20
2022-09-22T23:51:07.359Z,2.95
2022-09-22T23:53:35.605Z,1.85
2022-09-22T23:56:02.852Z,2.67
2022-09-22T23:58:30.512Z,3.28
